createdAt,value
2018-03-29T00:02:01.277Z,2.16
2018-03-29T00:04:28.834Z,2.06
2018-03-29T00:06:56.611Z,1.97
2018-03-29T00:09:24.165Z,1.98
2018-03-29T00:11:51.792Z,1.96
2018-03-29T00:14:19.345Z,1.93
2018-03-29T00:16:47.052Z,1.94
2018-03-29T00:19:14.613Z,1.95
2018-03-29T00:21:42.170Z,1.91
2018-03-29T00:24:09.902Z,1.86
2018-03-29T00:26:37.618Z,1.89
2018-03-29T00:29:05.472Z,1.94
2018-03-29T00:31:33.030Z,1.84
2018-03-29T00:34:00.595Z,1.83
2018-03-29T00:36:28.222Z,1.79
2018-03-29T00:38:55.758Z,1.70
2018-03-29T00:41:23.561Z,1.76
2018-03-29T00:43:51.126Z,1.79
2018-03-29T00:46:18.999Z,1.77
2018-03-29T00:48:46.818Z,1.74
2018-03-29T00:51:14.604Z,1.73
2018-03-29T00:53:45.122Z,1.71
2018-03-29T00:56:12.882Z,1.72
2018-03-29T00:58:40.449Z,1.75
2018-03-29T01:01:08.108Z,1.78
2018-03-29T01:03:35.754Z,1.81
2018-03-29T01:06:03.329Z,1.76
2018-03-29T01:08:33.981Z,1.77
2018-03-29T01:11:01.590Z,1.76
2018-03-29T01:13:29.158Z,1.79
2018-03-29T01:15:56.935Z,1.79
2018-03-29T01:18:24.494Z,1.82
2018-03-29T01:20:52.406Z,1.85
2018-03-29T01:23:19.971Z,1.87
2018-03-29T01:25:47.541Z,1.80
2018-03-29T01:28:15.146Z,1.73
2018-03-29T01:30:42.913Z,1.73
2018-03-29T01:33:10.629Z,1.66
2018-03-29T01:35:38.193Z,1.57
2018-03-29T01:38:05.822Z,1.53
2018-03-29T01:40:33.386Z,1.51
2018-03-29T01:43:00.959Z,1.48
2018-03-29T01:45:28.752Z,1.53
2018-03-29T01:47:56.315Z,1.48
2018-03-29T01:50:23.893Z,1.52
2018-03-29T01:52:51.460Z,1.52
2018-03-29T01:55:19.091Z,1.57
2018-03-29T01:57:46.710Z,1.58
2018-03-29T02:00:14.278Z,1.62
2018-03-29T02:02:42.076Z,1.53
2018-03-29T02:05:09.889Z,1.53
2018-03-29T02:07:37.541Z,1.50
2018-03-29T02:10:05.337Z,1.39
2018-03-29T02:12:32.913Z,1.39
2018-03-29T02:15:00.486Z,1.31
2018-03-29T02:17:28.288Z,1.26
2018-03-29T02:19:56.102Z,1.28
2018-03-29T02:22:23.653Z,1.25
2018-03-29T02:24:51.222Z,1.20
2018-03-29T02:27:18.794Z,1.06
2018-03-29T02:29:46.576Z,1.12
2018-03-29T02:32:14.228Z,1.12
2018-03-29T02:34:41.792Z,1.03
2018-03-29T02:37:09.428Z,1.04
2018-03-29T02:39:37.245Z,1.05
2018-03-29T02:42:04.935Z,1.07
2018-03-29T02:44:32.648Z,1.05
2018-03-29T02:47:00.211Z,0.99
2018-03-29T02:49:28.018Z,0.99
2018-03-29T02:51:55.616Z,1.00
2018-03-29T02:54:23.234Z,0.99
2018-03-29T02:56:50.811Z,0.95
2018-03-29T02:59:18.375Z,0.87
2018-03-29T03:01:46.007Z,0.82
2018-03-29T03:04:13.608Z,0.75
2018-03-29T03:06:41.167Z,0.71
2018-03-29T03:09:08.748Z,0.77
2018-03-29T03:11:36.569Z,0.82
2018-03-29T03:14:04.582Z,0.90
2018-03-29T03:16:32.298Z,0.95
2018-03-29T03:18:59.873Z,1.02
2018-03-29T03:21:27.438Z,0.99
2018-03-29T03:23:55.002Z,0.96
2018-03-29T03:26:22.677Z,1.01
2018-03-29T03:28:50.697Z,1.01
2018-03-29T03:31:18.327Z,0.92
2018-03-29T03:33:46.141Z,0.85
2018-03-29T03:36:13.860Z,0.80
2018-03-29T03:38:41.783Z,0.85
2018-03-29T03:41:09.487Z,0.77
2018-03-29T03:43:37.059Z,0.80
2018-03-29T03:46:04.833Z,0.77
2018-03-29T03:48:32.643Z,0.72
2018-03-29T03:51:01.013Z,0.70
2018-03-29T03:53:28.790Z,0.74
2018-03-29T03:55:56.609Z,0.73
2018-03-29T03:58:24.530Z,0.74
2018-03-29T04:00:52.253Z,0.79
2018-03-29T04:03:20.065Z,0.85
2018-03-29T04:05:47.975Z,0.86
2018-03-29T04:08:15.551Z,0.81
2018-03-29T04:10:43.204Z,0.81
2018-03-29T04:13:10.903Z,0.77
2018-03-29T04:15:38.623Z,0.80
2018-03-29T04:18:06.196Z,0.78
2018-03-29T04:20:33.758Z,0.75
2018-03-29T04:23:01.383Z,0.70
2018-03-29T04:25:29.127Z,0.74
2018-03-29T04:27:56.722Z,0.77
2018-03-29T04:30:24.441Z,0.83
2018-03-29T04:32:52.017Z,0.86
2018-03-29T04:35:19.701Z,0.94
2018-03-29T04:37:47.278Z,1.02
2018-03-29T04:40:14.910Z,1.25
2018-03-29T04:42:42.470Z,1.64
2018-03-29T04:45:10.270Z,2.18
2018-03-29T04:47:37.854Z,2.78
2018-03-29T04:50:05.414Z,3.33
2018-03-29T04:52:33.225Z,3.73
2018-03-29T04:55:00.786Z,4.09
2018-03-29T04:57:28.415Z,4.44
2018-03-29T04:59:55.969Z,4.72
2018-03-29T05:02:23.581Z,5.27
2018-03-29T05:04:51.151Z,6.03
2018-03-29T05:07:18.721Z,6.93
2018-03-29T05:09:46.306Z,7.80
2018-03-29T05:12:14.066Z,8.38
2018-03-29T05:14:41.883Z,9.08
2018-03-29T05:17:09.674Z,9.80
2018-03-29T05:19:37.522Z,10.10
2018-03-29T05:22:05.340Z,10.58
2018-03-29T05:24:32.947Z,11.33
2018-03-29T05:27:00.776Z,11.95
2018-03-29T05:29:28.341Z,12.66
2018-03-29T05:31:56.174Z,13.36
2018-03-29T05:34:23.762Z,13.98
2018-03-29T05:36:51.549Z,14.53
2018-03-29T05:39:19.118Z,14.95
2018-03-29T05:41:46.691Z,15.17
2018-03-29T05:44:14.403Z,15.45
2018-03-29T05:46:41.971Z,15.54
2018-03-29T05:49:09.755Z,15.91
2018-03-29T05:51:37.319Z,16.17
2018-03-29T05:54:04.892Z,16.64
2018-03-29T05:56:32.692Z,17.35
2018-03-29T05:59:00.258Z,17.79
2018-03-29T06:01:27.843Z,17.93
2018-03-29T06:03:55.406Z,18.15
2018-03-29T06:06:23.034Z,17.91
2018-03-29T06:08:50.781Z,18.06
2018-03-29T06:11:18.347Z,18.29
2018-03-29T06:13:45.967Z,18.81
2018-03-29T06:16:17.748Z,19.07
2018-03-29T06:18:45.571Z,19.41
2018-03-29T06:21:13.134Z,19.86
2018-03-29T06:23:40.702Z,20.19
2018-03-29T06:26:08.268Z,20.12
2018-03-29T06:28:35.898Z,20.58
2018-03-29T06:31:03.466Z,20.55
2018-03-29T06:33:31.038Z,20.32
2018-03-29T06:35:58.614Z,20.24
2018-03-29T06:38:26.183Z,20.74
2018-03-29T06:40:53.891Z,20.99
2018-03-29T06:43:21.458Z,21.14
2018-03-29T06:45:49.074Z,20.98
2018-03-29T06:48:16.641Z,21.03
2018-03-29T06:50:44.214Z,20.87
2018-03-29T06:53:12.017Z,20.76
2018-03-29T06:55:39.588Z,21.33
2018-03-29T06:58:07.357Z,21.14
2018-03-29T07:00:34.932Z,21.39
2018-03-29T07:03:02.782Z,21.34
2018-03-29T07:05:30.507Z,21.74
2018-03-29T07:07:58.329Z,22.01
2018-03-29T07:10:25.902Z,22.49
2018-03-29T07:12:53.479Z,22.22
2018-03-29T07:15:21.057Z,22.31
2018-03-29T07:17:48.622Z,22.00
2018-03-29T07:20:16.246Z,21.77
2018-03-29T07:22:44.035Z,21.61
2018-03-29T07:25:11.610Z,21.10
2018-03-29T07:27:39.186Z,21.37
2018-03-29T07:30:06.757Z,21.12
2018-03-29T07:32:34.506Z,21.53
2018-03-29T07:35:02.088Z,21.98
2018-03-29T07:37:29.941Z,22.93
2018-03-29T07:39:57.502Z,23.24
2018-03-29T07:42:25.071Z,22.42
2018-03-29T07:44:52.633Z,22.58
2018-03-29T07:47:20.411Z,23.00
2018-03-29T07:49:47.985Z,23.80
2018-03-29T07:52:15.582Z,24.09
2018-03-29T07:54:43.365Z,23.92
2018-03-29T07:57:10.930Z,23.45
2018-03-29T07:59:38.582Z,22.93
2018-03-29T08:02:06.490Z,22.58
2018-03-29T08:04:34.212Z,22.21
2018-03-29T08:07:02.059Z,21.56
2018-03-29T08:09:29.875Z,21.07
2018-03-29T08:11:57.696Z,20.95
2018-03-29T08:14:25.526Z,20.92
2018-03-29T08:16:53.388Z,21.69
2018-03-29T08:19:21.475Z,21.24
2018-03-29T08:21:49.288Z,21.31
2018-03-29T08:24:17.205Z,21.06
2018-03-29T08:26:45.139Z,21.01
2018-03-29T08:29:13.150Z,20.85
2018-03-29T08:31:40.745Z,20.86
2018-03-29T08:34:08.314Z,20.27
2018-03-29T08:36:35.972Z,20.96
2018-03-29T08:39:03.688Z,21.41
2018-03-29T08:41:31.307Z,21.41
2018-03-29T08:43:58.887Z,20.64
2018-03-29T08:46:26.620Z,19.36
2018-03-29T08:48:54.469Z,18.58
2018-03-29T08:51:22.291Z,17.78
2018-03-29T08:53:49.997Z,17.80
2018-03-29T08:56:17.745Z,17.48
2018-03-29T08:58:45.344Z,16.44
2018-03-29T09:01:13.160Z,15.84
2018-03-29T09:03:40.980Z,16.21
2018-03-29T09:06:08.804Z,16.92
2018-03-29T09:08:36.370Z,17.92
2018-03-29T09:11:04.111Z,19.03
2018-03-29T09:13:31.685Z,19.95
2018-03-29T09:15:59.270Z,19.96
2018-03-29T09:18:26.855Z,19.44
2018-03-29T09:20:54.702Z,17.99
2018-03-29T09:23:22.433Z,16.95
2018-03-29T09:25:50.242Z,15.49
2018-03-29T09:28:17.806Z,14.45
2018-03-29T09:30:45.543Z,14.01
2018-03-29T09:33:13.112Z,13.82
2018-03-29T09:35:40.858Z,13.92
2018-03-29T09:38:08.547Z,14.57
2018-03-29T09:40:36.351Z,15.81
2018-03-29T09:43:03.926Z,17.60
2018-03-29T09:45:31.498Z,18.34
2018-03-29T09:47:59.054Z,18.80
2018-03-29T09:50:26.644Z,18.90
2018-03-29T09:52:54.229Z,19.47
2018-03-29T09:55:21.797Z,20.83
2018-03-29T09:57:49.364Z,21.38
2018-03-29T10:00:17.293Z,21.38
2018-03-29T10:02:50.258Z,19.94
2018-03-29T10:05:17.866Z,20.12
2018-03-29T10:07:45.457Z,19.98
2018-03-29T10:10:13.014Z,19.74
2018-03-29T10:12:40.704Z,20.33
2018-03-29T10:15:08.269Z,20.23
2018-03-29T10:17:35.887Z,20.65
2018-03-29T10:20:03.508Z,20.15
2018-03-29T10:22:31.066Z,19.39
2018-03-29T10:24:58.650Z,19.55
2018-03-29T10:27:26.376Z,19.84
2018-03-29T10:29:54.126Z,19.68
2018-03-29T10:32:21.697Z,20.08
2018-03-29T10:34:49.563Z,20.21
2018-03-29T10:37:17.122Z,20.74
2018-03-29T10:39:44.785Z,21.00
2018-03-29T10:42:12.374Z,21.35
2018-03-29T10:44:39.938Z,21.65
2018-03-29T10:47:07.502Z,21.92
2018-03-29T10:49:35.269Z,21.40
2018-03-29T10:52:02.911Z,21.62
2018-03-29T10:54:30.705Z,20.13
2018-03-29T10:56:58.323Z,19.92
2018-03-29T10:59:25.916Z,19.55
2018-03-29T11:01:53.479Z,20.09
2018-03-29T11:04:21.067Z,20.62
2018-03-29T11:06:48.645Z,20.79
2018-03-29T11:09:16.513Z,20.77
2018-03-29T11:11:44.088Z,20.71
2018-03-29T11:14:11.654Z,20.40
2018-03-29T11:16:39.256Z,19.71
2018-03-29T11:19:06.822Z,19.78
2018-03-29T11:21:34.406Z,20.10
2018-03-29T11:24:02.320Z,20.07
2018-03-29T11:26:30.141Z,20.09
2018-03-29T11:28:57.748Z,19.08
2018-03-29T11:31:25.476Z,18.58
2018-03-29T11:33:53.293Z,19.03
2018-03-29T11:36:20.931Z,19.62
2018-03-29T11:38:48.537Z,20.17
2018-03-29T11:41:16.154Z,20.21
2018-03-29T11:43:43.944Z,19.87
2018-03-29T11:46:11.509Z,19.59
2018-03-29T11:48:39.070Z,19.89
2018-03-29T11:51:06.794Z,19.68
2018-03-29T11:53:34.363Z,19.74
2018-03-29T11:56:01.966Z,20.15
2018-03-29T11:58:29.772Z,20.43
2018-03-29T12:00:57.395Z,20.39
2018-03-29T12:03:24.998Z,19.80
2018-03-29T12:05:52.795Z,20.35
2018-03-29T12:08:20.360Z,21.16
2018-03-29T12:10:48.162Z,21.82
2018-03-29T12:13:15.732Z,22.12
2018-03-29T12:15:43.290Z,21.63
2018-03-29T12:18:10.910Z,21.47
2018-03-29T12:20:38.483Z,21.50
2018-03-29T12:23:06.066Z,20.71
2018-03-29T12:25:33.636Z,20.60
2018-03-29T12:28:01.194Z,20.90
2018-03-29T12:30:28.777Z,21.42
2018-03-29T12:32:56.409Z,21.95
2018-03-29T12:35:24.239Z,22.48
2018-03-29T12:37:51.814Z,22.28
2018-03-29T12:40:19.575Z,22.09
2018-03-29T12:42:47.395Z,21.52
2018-03-29T12:45:15.213Z,22.15
2018-03-29T12:47:43.031Z,22.40
2018-03-29T12:50:10.850Z,22.19
2018-03-29T12:52:38.472Z,21.48
2018-03-29T12:58:09.685Z,20.47
2018-03-29T13:00:37.419Z,20.60
2018-03-29T13:03:05.266Z,21.69
2018-03-29T13:05:32.894Z,22.30
2018-03-29T13:08:00.706Z,22.31
2018-03-29T13:10:28.293Z,22.68
2018-03-29T13:12:55.861Z,23.18
2018-03-29T13:15:23.661Z,23.49
2018-03-29T13:17:51.394Z,23.47
2018-03-29T13:20:18.961Z,22.99
2018-03-29T13:22:46.718Z,22.19
2018-03-29T13:25:14.291Z,21.26
2018-03-29T13:27:41.861Z,21.82
2018-03-29T13:30:09.666Z,22.37
2018-03-29T13:32:37.304Z,22.92
2018-03-29T13:35:04.875Z,23.21
2018-03-29T13:37:32.440Z,23.42
2018-03-29T13:40:00.237Z,22.96
2018-03-29T13:42:27.794Z,22.68
2018-03-29T13:44:55.575Z,22.75
2018-03-29T13:47:23.391Z,23.21
2018-03-29T13:49:51.106Z,23.45
2018-03-29T13:52:18.817Z,23.76
2018-03-29T13:54:46.389Z,23.87
2018-03-29T13:57:13.958Z,24.38
2018-03-29T13:59:41.551Z,24.33
2018-03-29T14:02:09.118Z,24.22
2018-03-29T14:04:36.927Z,24.29
2018-03-29T14:07:04.557Z,24.23
2018-03-29T14:09:32.141Z,23.78
2018-03-29T14:11:59.694Z,23.32
2018-03-29T14:14:27.272Z,22.20
2018-03-29T14:16:54.835Z,22.00
2018-03-29T14:19:22.453Z,21.64
2018-03-29T14:21:50.699Z,20.87
2018-03-29T14:24:18.438Z,20.38
2018-03-29T14:26:46.009Z,20.19
2018-03-29T14:29:13.570Z,20.39
2018-03-29T14:31:41.196Z,20.36
2018-03-29T14:34:08.785Z,20.86
2018-03-29T14:36:36.550Z,21.25
2018-03-29T14:39:04.511Z,21.86
2018-03-29T14:41:32.137Z,22.13
2018-03-29T14:44:00.101Z,22.56
2018-03-29T14:46:27.693Z,23.04
2018-03-29T14:48:55.405Z,23.08
2018-03-29T14:51:22.978Z,21.78
2018-03-29T14:53:50.545Z,21.50
2018-03-29T14:56:18.154Z,21.68
2018-03-29T14:58:45.714Z,21.81
2018-03-29T15:01:13.316Z,21.97
2018-03-29T15:03:40.890Z,22.16
2018-03-29T15:06:08.455Z,22.53
2018-03-29T15:08:36.082Z,22.60
2018-03-29T15:11:03.662Z,22.34
2018-03-29T15:13:31.256Z,21.97
2018-03-29T15:15:59.038Z,21.32
2018-03-29T15:18:26.646Z,20.74
2018-03-29T15:20:54.290Z,20.12
2018-03-29T15:23:21.858Z,20.02
2018-03-29T15:25:49.609Z,19.90
2018-03-29T15:28:17.189Z,19.83
2018-03-29T15:30:44.827Z,19.79
2018-03-29T15:33:12.533Z,19.64
2018-03-29T15:35:41.075Z,19.58
2018-03-29T15:38:09.003Z,19.09
2018-03-29T15:40:36.738Z,18.78
2018-03-29T15:43:04.407Z,18.39
2018-03-29T15:45:31.990Z,17.93
2018-03-29T15:47:59.560Z,17.26
2018-03-29T15:50:27.187Z,16.64
2018-03-29T15:52:54.792Z,16.04
2018-03-29T15:55:22.426Z,15.64
2018-03-29T15:57:50.152Z,15.35
2018-03-29T16:00:17.940Z,15.20
2018-03-29T16:02:45.518Z,15.05
2018-03-29T16:05:13.083Z,14.88
2018-03-29T16:07:40.819Z,14.79
2018-03-29T16:10:08.429Z,14.57
2018-03-29T16:12:37.218Z,14.48
2018-03-29T16:15:04.862Z,14.34
2018-03-29T16:17:32.694Z,14.23
2018-03-29T16:20:00.270Z,14.12
2018-03-29T16:22:27.838Z,13.95
2018-03-29T16:24:55.460Z,13.76
2018-03-29T16:27:23.265Z,13.60
2018-03-29T16:29:50.834Z,13.39
2018-03-29T16:32:18.420Z,13.33
2018-03-29T16:34:45.986Z,13.19
2018-03-29T16:37:13.580Z,13.09
2018-03-29T16:39:41.149Z,12.97
2018-03-29T16:42:08.770Z,12.88
2018-03-29T16:44:36.490Z,12.77
2018-03-29T16:47:04.309Z,12.67
2018-03-29T16:49:31.874Z,12.54
2018-03-29T16:51:59.645Z,12.39
2018-03-29T16:54:27.233Z,12.31
2018-03-29T16:56:54.814Z,12.24
2018-03-29T16:59:22.753Z,12.10
2018-03-29T17:01:50.310Z,12.01
2018-03-29T17:04:18.036Z,11.97
2018-03-29T17:06:45.618Z,11.94
2018-03-29T17:09:13.192Z,11.88
2018-03-29T17:11:40.801Z,11.68
2018-03-29T17:14:08.379Z,11.57
2018-03-29T17:16:36.022Z,11.53
2018-03-29T17:19:03.734Z,11.49
2018-03-29T17:21:31.461Z,11.49
2018-03-29T17:23:59.069Z,11.50
2018-03-29T17:26:26.801Z,11.43
2018-03-29T17:28:54.382Z,11.35
2018-03-29T17:31:21.949Z,11.31
2018-03-29T17:33:49.642Z,11.19
2018-03-29T17:36:17.206Z,11.19
2018-03-29T17:38:44.782Z,11.16
2018-03-29T17:41:12.416Z,11.13
2018-03-29T17:43:39.954Z,11.09
2018-03-29T17:46:07.630Z,11.03
2018-03-29T17:48:35.348Z,11.07
2018-03-29T17:51:03.136Z,11.08
2018-03-29T17:53:30.876Z,11.03
2018-03-29T17:55:58.442Z,10.98
2018-03-29T17:58:26.231Z,10.94
2018-03-29T18:00:53.930Z,10.93
2018-03-29T18:03:21.767Z,10.92
2018-03-29T18:05:49.360Z,10.93
2018-03-29T18:08:17.202Z,10.88
2018-03-29T18:10:44.812Z,10.81
2018-03-29T18:13:12.386Z,10.77
2018-03-29T18:15:40.130Z,10.73
2018-03-29T18:18:07.699Z,10.77
2018-03-29T18:20:35.290Z,10.69
2018-03-29T18:23:03.112Z,10.61
2018-03-29T18:25:30.820Z,10.56
2018-03-29T18:27:58.395Z,10.48
2018-03-29T18:30:25.972Z,10.42
2018-03-29T18:32:53.716Z,10.38
2018-03-29T18:35:21.501Z,10.32
2018-03-29T18:37:49.096Z,10.27
2018-03-29T18:40:16.665Z,10.18
2018-03-29T18:42:44.286Z,10.14
2018-03-29T18:45:11.887Z,10.07
2018-03-29T18:47:39.490Z,9.94
2018-03-29T18:50:07.308Z,9.87
2018-03-29T18:52:35.027Z,9.84
2018-03-29T18:55:02.657Z,9.85
2018-03-29T18:57:30.222Z,9.87
2018-03-29T18:59:57.822Z,9.81
2018-03-29T19:02:25.397Z,9.83
2018-03-29T19:04:52.986Z,9.82
2018-03-29T19:07:20.826Z,9.84
2018-03-29T19:09:48.408Z,9.85
2018-03-29T19:12:15.984Z,9.86
2018-03-29T19:14:43.798Z,9.76
2018-03-29T19:17:11.378Z,9.75
2018-03-29T19:19:39.225Z,9.72
2018-03-29T19:22:06.820Z,9.65
2018-03-29T19:24:34.443Z,9.54
2018-03-29T19:27:02.069Z,9.52
2018-03-29T19:29:29.893Z,9.49
2018-03-29T19:31:57.525Z,9.42
2018-03-29T19:34:25.302Z,9.38
2018-03-29T19:36:52.880Z,9.37
2018-03-29T19:39:20.467Z,9.29
2018-03-29T19:41:48.287Z,9.12
2018-03-29T19:44:16.108Z,9.06
2018-03-29T19:46:43.673Z,9.06
2018-03-29T19:49:11.542Z,8.96
2018-03-29T19:51:39.104Z,8.89
2018-03-29T19:54:06.671Z,8.89
2018-03-29T19:56:34.287Z,8.83
2018-03-29T19:59:02.014Z,8.86
2018-03-29T20:01:29.833Z,8.88
2018-03-29T20:03:57.434Z,8.91
2018-03-29T20:06:24.998Z,8.85
2018-03-29T20:08:52.667Z,8.82
2018-03-29T20:11:20.282Z,8.88
2018-03-29T20:13:48.124Z,8.90
2018-03-29T20:16:15.690Z,8.97
2018-03-29T20:18:43.251Z,8.96
2018-03-29T20:21:10.823Z,8.96
2018-03-29T20:23:38.378Z,8.94
2018-03-29T20:26:06.022Z,8.97
2018-03-29T20:28:33.666Z,8.96
2018-03-29T20:31:01.226Z,8.99
2018-03-29T20:33:28.815Z,9.03
2018-03-29T20:35:56.474Z,9.02
2018-03-29T20:38:24.171Z,9.00
2018-03-29T20:40:51.730Z,8.97
2018-03-29T20:43:19.536Z,9.02
2018-03-29T20:45:47.110Z,9.03
2018-03-29T20:48:14.662Z,9.04
2018-03-29T20:50:42.234Z,9.07
2018-03-29T20:53:09.790Z,9.03
2018-03-29T20:55:37.520Z,9.15
2018-03-29T20:58:05.094Z,9.21
2018-03-29T21:00:32.860Z,9.20
2018-03-29T21:03:00.461Z,9.13
2018-03-29T21:05:28.024Z,9.12
2018-03-29T21:07:55.837Z,9.09
2018-03-29T21:10:23.412Z,9.06
2018-03-29T21:12:51.134Z,9.05
2018-03-29T21:15:18.707Z,9.02
2018-03-29T21:17:46.265Z,8.96
2018-03-29T21:20:13.986Z,8.91
2018-03-29T21:22:41.550Z,8.79
2018-03-29T21:25:09.177Z,8.81
2018-03-29T21:27:36.957Z,8.83
2018-03-29T21:30:04.587Z,8.82
2018-03-29T21:32:32.174Z,8.80
2018-03-29T21:34:59.914Z,8.81
2018-03-29T21:37:27.732Z,8.85
2018-03-29T21:39:55.284Z,8.77
2018-03-29T21:42:22.926Z,8.70
2018-03-29T21:44:50.485Z,8.61
2018-03-29T21:47:18.301Z,8.64
2018-03-29T21:49:45.912Z,8.59
2018-03-29T21:52:13.478Z,8.56
2018-03-29T21:54:41.086Z,8.60
2018-03-29T21:57:08.833Z,8.59
2018-03-29T21:59:36.386Z,8.64
2018-03-29T22:02:03.976Z,8.79
2018-03-29T22:04:31.544Z,8.81
2018-03-29T22:06:59.185Z,8.84
2018-03-29T22:09:26.782Z,8.81
2018-03-29T22:11:54.582Z,8.79
2018-03-29T22:14:22.398Z,8.77
2018-03-29T22:16:49.961Z,8.76
2018-03-29T22:19:17.574Z,8.72
2018-03-29T22:21:45.355Z,8.72
2018-03-29T22:24:13.838Z,8.83
2018-03-29T22:26:41.412Z,8.93
2018-03-29T22:29:09.210Z,8.90
2018-03-29T22:31:37.029Z,8.94
2018-03-29T22:34:04.743Z,9.05
2018-03-29T22:36:32.374Z,9.19
2018-03-29T22:39:00.182Z,9.23
2018-03-29T22:41:27.900Z,9.24
2018-03-29T22:43:55.463Z,9.29
2018-03-29T22:46:23.240Z,9.31
2018-03-29T22:48:50.805Z,9.33
2018-03-29T22:51:18.366Z,9.31
2018-03-29T22:53:46.018Z,9.27
2018-03-29T22:56:13.579Z,9.37
2018-03-29T22:58:41.137Z,9.54
2018-03-29T23:01:08.734Z,9.57
2018-03-29T23:03:36.364Z,9.67
2018-03-29T23:06:04.179Z,9.68
2018-03-29T23:08:31.889Z,9.69
2018-03-29T23:10:59.716Z,9.59
2018-03-29T23:13:27.274Z,9.51
2018-03-29T23:15:55.052Z,9.43
2018-03-29T23:18:22.870Z,9.37
2018-03-29T23:20:50.589Z,9.39
2018-03-29T23:23:18.168Z,9.39
2018-03-29T23:25:45.898Z,9.27
2018-03-29T23:28:13.586Z,9.26
2018-03-29T23:30:41.330Z,9.28
2018-03-29T23:33:08.885Z,9.25
2018-03-29T23:35:36.697Z,9.22
2018-03-29T23:38:04.319Z,9.22
2018-03-29T23:40:32.051Z,9.29
2018-03-29T23:42:59.811Z,9.34
2018-03-29T23:45:27.726Z,9.29
2018-03-29T23:47:55.330Z,9.30
2018-03-29T23:50:23.107Z,9.31
2018-03-29T23:52:50.678Z,9.32
2018-03-29T23:55:18.242Z,9.26
2018-03-29T23:57:45.926Z,9.23
